createdAt,value
2018-12-26T00:02:19.388Z,8.00
2018-12-26T00:04:48.357Z,9.33
2018-12-26T00:07:17.185Z,7.83
2018-12-26T00:09:45.998Z,7.73
2018-12-26T00:12:14.958Z,8.60
2018-12-26T00:14:43.801Z,8.70
2018-12-26T00:17:12.689Z,8.27
2018-12-26T00:19:41.663Z,9.27
2018-12-26T00:22:10.638Z,9.40
2018-12-26T00:24:39.530Z,8.67
2018-12-26T00:27:08.338Z,9.10
2018-12-26T00:29:37.258Z,8.58
2018-12-26T00:32:06.138Z,9.23
2018-12-26T00:34:34.966Z,8.10
2018-12-26T00:37:03.862Z,8.40
2018-12-26T00:39:32.692Z,8.90
2018-12-26T00:42:01.729Z,7.92
2018-12-26T00:44:30.741Z,10.13
2018-12-26T00:46:59.553Z,10.17
2018-12-26T00:49:28.406Z,9.33
2018-12-26T00:51:57.221Z,9.43
2018-12-26T00:54:26.264Z,9.50
2018-12-26T00:56:55.087Z,8.40
2018-12-26T00:59:23.898Z,7.70
2018-12-26T01:01:52.787Z,8.67
2018-12-26T01:04:21.601Z,6.77
2018-12-26T01:06:50.410Z,8.53
2018-12-26T01:09:19.301Z,8.10
2018-12-26T01:11:48.183Z,8.25
2018-12-26T01:14:17.012Z,9.10
2018-12-26T01:16:45.881Z,9.30
2018-12-26T01:19:14.713Z,8.83
2018-12-26T01:21:43.554Z,11.12
2018-12-26T01:24:12.504Z,6.83
2018-12-26T01:26:41.422Z,9.50
2018-12-26T01:29:10.234Z,8.90
2018-12-26T01:31:39.372Z,9.10
2018-12-26T01:34:08.910Z,8.03
2018-12-26T01:36:37.941Z,8.43
2018-12-26T01:39:07.561Z,7.92
2018-12-26T01:41:36.445Z,8.17
2018-12-26T01:44:05.324Z,8.30
2018-12-26T01:46:34.174Z,8.73
2018-12-26T01:49:02.980Z,6.90
2018-12-26T01:51:31.861Z,7.37
2018-12-26T01:54:00.817Z,8.93
2018-12-26T01:56:29.715Z,8.67
2018-12-26T01:58:58.659Z,9.20
2018-12-26T02:01:27.403Z,9.87
2018-12-26T02:03:56.286Z,6.80
2018-12-26T02:06:25.366Z,9.70
2018-12-26T02:08:54.251Z,10.80
2018-12-26T02:11:23.084Z,7.40
2018-12-26T02:13:51.961Z,8.80
2018-12-26T02:16:20.896Z,7.40
2018-12-26T02:18:49.695Z,8.43
2018-12-26T02:21:18.511Z,8.00
2018-12-26T02:23:47.494Z,8.60
2018-12-26T02:26:16.437Z,6.93
2018-12-26T02:28:45.248Z,8.77
2018-12-26T02:31:14.135Z,9.28
2018-12-26T02:33:42.958Z,8.20
2018-12-26T02:36:11.863Z,11.80
2018-12-26T02:38:40.755Z,9.00
2018-12-26T02:41:10.513Z,9.30
2018-12-26T02:43:39.382Z,9.87
2018-12-26T02:46:08.276Z,7.70
2018-12-26T02:48:37.076Z,9.50
2018-12-26T02:51:05.905Z,8.10
2018-12-26T02:53:34.718Z,9.90
2018-12-26T02:56:03.607Z,10.17
2018-12-26T02:58:32.451Z,8.87
2018-12-26T03:01:01.361Z,9.97
2018-12-26T03:03:30.271Z,8.60
2018-12-26T03:05:59.095Z,8.57
2018-12-26T03:08:28.075Z,8.33
2018-12-26T03:10:56.902Z,9.43
2018-12-26T03:13:25.867Z,10.47
2018-12-26T03:15:54.924Z,8.87
2018-12-26T03:18:23.895Z,6.90
2018-12-26T03:20:52.867Z,9.67
2018-12-26T03:23:21.702Z,9.43
2018-12-26T03:25:50.529Z,8.57
2018-12-26T03:28:19.422Z,9.10
2018-12-26T03:30:48.267Z,8.37
2018-12-26T03:33:17.153Z,9.43
2018-12-26T03:35:45.972Z,8.63
2018-12-26T03:38:14.935Z,8.98
2018-12-26T03:40:43.948Z,8.73
2018-12-26T03:43:12.915Z,7.47
2018-12-26T03:45:42.253Z,9.08
2018-12-26T03:48:11.705Z,9.93
2018-12-26T03:50:40.576Z,8.27
2018-12-26T03:53:09.756Z,10.83
2018-12-26T03:55:38.712Z,11.73
2018-12-26T03:58:07.668Z,9.17
2018-12-26T04:00:36.553Z,9.10
2018-12-26T04:03:05.542Z,10.08
2018-12-26T04:05:34.503Z,13.90
2018-12-26T04:08:03.564Z,9.63
2018-12-26T04:10:32.721Z,10.80
2018-12-26T04:13:01.802Z,12.30
2018-12-26T04:15:31.072Z,11.53
2018-12-26T04:17:59.973Z,14.70
2018-12-26T04:20:29.314Z,11.25
2018-12-26T04:22:58.508Z,8.43
2018-12-26T04:25:27.671Z,10.33
2018-12-26T04:27:56.486Z,21.17
2018-12-26T04:30:25.291Z,11.67
2018-12-26T04:32:54.105Z,16.93
2018-12-26T04:35:23.008Z,10.90
2018-12-26T04:37:51.949Z,15.97
2018-12-26T04:40:20.776Z,13.73
2018-12-26T04:42:49.644Z,13.30
2018-12-26T04:45:18.645Z,13.20
2018-12-26T04:47:47.487Z,14.80
2018-12-26T04:50:16.298Z,14.77
2018-12-26T04:52:45.134Z,13.07
2018-12-26T04:55:14.042Z,12.40
2018-12-26T04:57:42.851Z,12.28
2018-12-26T05:00:11.806Z,12.57
2018-12-26T05:02:40.695Z,13.80
2018-12-26T05:05:09.520Z,11.33
2018-12-26T05:07:38.333Z,15.18
2018-12-26T05:10:07.653Z,16.30
2018-12-26T05:12:36.628Z,17.07
2018-12-26T05:15:05.837Z,16.45
2018-12-26T05:17:34.857Z,16.20
2018-12-26T05:20:03.817Z,15.37
2018-12-26T05:22:32.790Z,15.78
2018-12-26T05:25:01.672Z,15.17
2018-12-26T05:27:34.258Z,14.07
2018-12-26T05:30:01.052Z,13.30
2018-12-26T05:32:30.055Z,13.13
2018-12-26T05:34:58.941Z,13.18
2018-12-26T05:37:27.851Z,12.20
2018-12-26T05:39:56.670Z,13.47
2018-12-26T05:42:25.565Z,12.30
2018-12-26T05:44:54.387Z,12.20
2018-12-26T05:47:23.304Z,12.87
2018-12-26T05:49:52.187Z,11.80
2018-12-26T05:52:21.025Z,12.77
2018-12-26T05:54:49.993Z,11.17
2018-12-26T05:57:18.884Z,10.85
2018-12-26T05:59:47.750Z,10.90
2018-12-26T06:02:16.588Z,13.60
2018-12-26T06:04:46.075Z,12.70
2018-12-26T06:07:14.902Z,10.90
2018-12-26T06:09:43.720Z,12.70
2018-12-26T06:12:12.618Z,12.00
2018-12-26T06:14:41.436Z,14.87
2018-12-26T06:17:10.239Z,9.80
2018-12-26T06:19:39.100Z,16.57
2018-12-26T06:22:07.924Z,12.70
2018-12-26T06:24:36.723Z,9.00
2018-12-26T06:27:05.565Z,10.65
2018-12-26T06:29:34.412Z,12.53
2018-12-26T06:32:03.256Z,11.10
2018-12-26T06:34:32.081Z,10.17
2018-12-26T06:37:00.910Z,10.43
2018-12-26T06:39:29.750Z,11.00
2018-12-26T06:41:58.716Z,11.80
2018-12-26T06:44:27.532Z,11.27
2018-12-26T06:46:56.346Z,12.10
2018-12-26T06:49:25.163Z,10.07
2018-12-26T06:51:54.206Z,9.00
2018-12-26T06:54:23.038Z,10.57
2018-12-26T06:56:51.946Z,12.80
2018-12-26T06:59:20.772Z,13.60
2018-12-26T07:01:49.706Z,9.00
2018-12-26T07:04:18.509Z,8.00
2018-12-26T07:06:48.123Z,8.40
2018-12-26T07:09:16.954Z,12.10
2018-12-26T07:11:45.773Z,11.10
2018-12-26T07:14:14.605Z,12.80
2018-12-26T07:16:43.642Z,10.37
2018-12-26T07:19:12.483Z,10.60
2018-12-26T07:21:41.371Z,11.60
2018-12-26T07:24:10.209Z,11.47
2018-12-26T07:26:39.095Z,9.83
2018-12-26T07:29:07.910Z,10.30
2018-12-26T07:31:36.849Z,11.55
2018-12-26T07:34:06.061Z,12.03
2018-12-26T07:36:34.896Z,11.78
2018-12-26T07:39:04.738Z,13.70
2018-12-26T07:41:33.549Z,10.10
2018-12-26T07:44:02.457Z,12.63
2018-12-26T07:46:31.333Z,8.33
2018-12-26T07:49:00.192Z,12.57
2018-12-26T07:51:29.031Z,9.27
2018-12-26T07:53:57.847Z,9.40
2018-12-26T07:56:26.651Z,11.90
2018-12-26T07:58:55.482Z,9.30
2018-12-26T08:01:24.289Z,10.30
2018-12-26T08:03:53.136Z,9.00
2018-12-26T08:06:21.952Z,9.97
2018-12-26T08:08:50.791Z,11.43
2018-12-26T08:11:20.326Z,10.30
2018-12-26T08:13:49.283Z,11.57
2018-12-26T08:16:18.125Z,9.60
2018-12-26T08:18:47.024Z,9.20
2018-12-26T08:21:15.851Z,10.87
2018-12-26T08:23:44.747Z,11.43
2018-12-26T08:26:13.663Z,11.23
2018-12-26T08:28:42.487Z,12.37
2018-12-26T08:31:11.508Z,12.57
2018-12-26T08:33:40.341Z,11.73
2018-12-26T08:36:09.164Z,10.77
2018-12-26T08:38:38.035Z,11.63
2018-12-26T08:41:06.847Z,10.87
2018-12-26T08:43:35.757Z,14.90
2018-12-26T08:46:04.732Z,16.07
2018-12-26T08:48:33.584Z,14.18
2018-12-26T08:51:02.484Z,14.23
2018-12-26T08:53:31.462Z,11.17
2018-12-26T08:56:00.269Z,10.73
2018-12-26T08:58:35.160Z,12.53
2018-12-26T09:00:59.626Z,11.30
2018-12-26T09:03:28.553Z,13.80
2018-12-26T09:05:57.371Z,14.00
2018-12-26T09:08:26.248Z,12.25
2018-12-26T09:10:55.152Z,12.47
2018-12-26T09:13:24.082Z,17.17
2018-12-26T09:15:52.902Z,14.57
2018-12-26T09:18:21.734Z,13.17
2018-12-26T09:20:50.556Z,16.33
2018-12-26T09:23:19.423Z,12.37
2018-12-26T09:25:58.287Z,10.60
2018-12-26T09:28:27.168Z,13.20
2018-12-26T09:30:55.997Z,11.97
2018-12-26T09:33:24.909Z,13.40
2018-12-26T09:35:53.732Z,12.80
2018-12-26T09:38:23.634Z,13.15
2018-12-26T09:40:52.655Z,12.63
2018-12-26T09:43:21.473Z,12.23
2018-12-26T09:45:50.305Z,16.73
2018-12-26T09:48:19.137Z,11.90
2018-12-26T09:50:47.942Z,10.58
2018-12-26T09:53:16.884Z,15.53
2018-12-26T09:55:45.695Z,11.23
2018-12-26T09:58:14.600Z,11.20
2018-12-26T10:00:43.421Z,13.77
2018-12-26T10:03:12.458Z,16.00
2018-12-26T10:05:41.288Z,15.93
2018-12-26T10:08:10.102Z,14.00
2018-12-26T10:10:38.927Z,14.10
2018-12-26T10:13:07.752Z,16.37
2018-12-26T10:15:36.659Z,12.40
2018-12-26T10:18:05.550Z,16.87
2018-12-26T10:20:34.726Z,13.37
2018-12-26T10:23:03.552Z,10.93
2018-12-26T10:25:32.391Z,11.85
2018-12-26T10:28:01.299Z,16.47
2018-12-26T10:30:30.210Z,10.87
2018-12-26T10:32:59.082Z,12.17
2018-12-26T10:35:28.028Z,14.10
2018-12-26T10:37:56.916Z,13.13
2018-12-26T10:40:26.184Z,13.13
2018-12-26T10:42:54.992Z,13.88
2018-12-26T10:45:23.817Z,15.67
2018-12-26T10:47:52.654Z,13.10
2018-12-26T10:50:21.497Z,11.70
2018-12-26T10:52:50.301Z,12.57
2018-12-26T10:55:19.119Z,12.10
2018-12-26T10:57:47.934Z,13.87
2018-12-26T11:00:16.837Z,12.18
2018-12-26T11:02:45.717Z,14.93
2018-12-26T11:05:14.697Z,13.17
2018-12-26T11:07:43.591Z,14.37
2018-12-26T11:10:12.423Z,15.50
2018-12-26T11:12:41.241Z,15.95
2018-12-26T11:15:10.626Z,16.97
2018-12-26T11:17:39.519Z,12.85
2018-12-26T11:20:11.507Z,14.23
2018-12-26T11:22:40.393Z,12.43
2018-12-26T11:25:09.364Z,20.13
2018-12-26T11:27:38.246Z,12.87
2018-12-26T11:30:08.076Z,12.60
2018-12-26T11:32:37.000Z,15.97
2018-12-26T11:35:06.019Z,13.57
2018-12-26T11:37:34.994Z,11.07
2018-12-26T11:40:04.255Z,12.60
2018-12-26T11:42:33.224Z,11.23
2018-12-26T11:45:02.137Z,10.20
2018-12-26T11:47:31.202Z,11.60
2018-12-26T11:50:00.202Z,13.30
2018-12-26T11:52:29.124Z,13.53
2018-12-26T11:54:58.030Z,12.33
2018-12-26T11:57:27.027Z,11.40
2018-12-26T11:59:55.860Z,14.30
2018-12-26T12:02:24.812Z,9.50
2018-12-26T12:04:53.818Z,12.40
2018-12-26T12:07:22.795Z,10.10
2018-12-26T12:09:51.702Z,12.03
2018-12-26T12:12:20.648Z,11.47
2018-12-26T12:14:49.627Z,9.63
2018-12-26T12:17:18.591Z,9.53
2018-12-26T12:19:47.497Z,10.50
2018-12-26T12:22:16.464Z,10.53
2018-12-26T12:24:45.565Z,12.97
2018-12-26T12:27:14.407Z,13.40
2018-12-26T12:29:43.255Z,12.13
2018-12-26T12:32:12.091Z,12.73
2018-12-26T12:34:41.003Z,12.23
2018-12-26T12:37:10.313Z,11.97
2018-12-26T12:39:39.251Z,12.30
2018-12-26T12:42:08.172Z,9.97
2018-12-26T12:44:37.134Z,11.45
2018-12-26T12:47:06.131Z,12.27
2018-12-26T12:49:37.157Z,12.60
2018-12-26T12:52:05.681Z,10.53
2018-12-26T12:54:34.584Z,8.98
2018-12-26T12:57:03.692Z,10.43
2018-12-26T12:59:32.787Z,11.53
2018-12-26T13:02:01.988Z,8.28
2018-12-26T13:04:31.033Z,9.18
2018-12-26T13:06:59.877Z,9.97
2018-12-26T13:09:28.812Z,11.00
2018-12-26T13:11:57.729Z,9.30
2018-12-26T13:14:26.783Z,11.40
2018-12-26T13:16:55.852Z,11.50
2018-12-26T13:19:24.721Z,10.03
2018-12-26T13:21:53.708Z,12.70
2018-12-26T13:24:22.553Z,10.13
2018-12-26T13:26:51.383Z,11.53
2018-12-26T13:29:20.412Z,11.27
2018-12-26T13:31:49.251Z,11.07
2018-12-26T13:34:18.141Z,12.20
2018-12-26T13:36:46.979Z,12.00
2018-12-26T13:39:15.807Z,13.10
2018-12-26T13:41:44.713Z,10.10
2018-12-26T13:44:13.550Z,10.57
2018-12-26T13:46:42.389Z,11.63
2018-12-26T13:49:11.315Z,9.83
2018-12-26T13:51:40.402Z,12.20
2018-12-26T13:54:09.226Z,15.67
2018-12-26T13:56:38.087Z,11.55
2018-12-26T13:59:06.995Z,12.57
2018-12-26T14:01:35.821Z,14.43
2018-12-26T14:04:04.786Z,11.50
2018-12-26T14:06:43.042Z,12.70
2018-12-26T14:09:12.241Z,12.97
2018-12-26T14:11:41.033Z,13.80
2018-12-26T14:14:10.281Z,15.40
2018-12-26T14:16:39.110Z,17.30
2018-12-26T14:19:07.937Z,15.77
2018-12-26T14:21:36.767Z,14.20
2018-12-26T14:24:05.594Z,12.73
2018-12-26T14:26:34.483Z,11.80
2018-12-26T14:29:03.374Z,12.77
2018-12-26T14:31:32.205Z,15.70
2018-12-26T14:34:01.025Z,14.00
2018-12-26T14:36:29.970Z,15.23
2018-12-26T14:38:58.826Z,14.97
2018-12-26T14:41:27.649Z,12.83
2018-12-26T14:43:56.552Z,18.53
2018-12-26T14:46:25.721Z,15.47
2018-12-26T14:48:54.595Z,18.87
2018-12-26T14:51:26.552Z,14.73
2018-12-26T14:53:54.055Z,14.30
2018-12-26T14:56:22.953Z,18.70
2018-12-26T14:58:51.836Z,15.13
2018-12-26T15:01:20.667Z,15.70
2018-12-26T15:03:49.475Z,15.87
2018-12-26T15:06:18.305Z,18.47
2018-12-26T15:08:47.121Z,16.07
2018-12-26T15:11:16.018Z,21.13
2018-12-26T15:13:44.919Z,17.13
2018-12-26T15:16:13.898Z,18.90
2018-12-26T15:18:42.864Z,14.28
2018-12-26T15:21:11.872Z,15.80
2018-12-26T15:23:40.817Z,14.35
2018-12-26T15:26:09.649Z,20.73
2018-12-26T15:28:38.562Z,16.47
2018-12-26T15:31:08.172Z,14.23
2018-12-26T15:33:37.016Z,13.48
2018-12-26T15:36:05.986Z,17.67
2018-12-26T15:38:34.801Z,15.13
2018-12-26T15:41:03.806Z,20.57
2018-12-26T15:43:32.648Z,15.57
2018-12-26T15:46:01.559Z,19.20
2018-12-26T15:48:30.450Z,17.30
2018-12-26T15:50:59.607Z,14.43
2018-12-26T15:53:28.429Z,15.45
2018-12-26T15:55:57.334Z,15.67
2018-12-26T15:58:26.227Z,15.30
2018-12-26T16:00:55.152Z,17.93
2018-12-26T16:03:24.070Z,18.73
2018-12-26T16:05:52.983Z,16.70
2018-12-26T16:08:21.825Z,19.00
2018-12-26T16:10:50.666Z,15.88
2018-12-26T16:13:19.561Z,18.80
2018-12-26T16:15:48.401Z,16.97
2018-12-26T16:18:17.228Z,15.30
2018-12-26T16:20:46.143Z,13.20
2018-12-26T16:23:14.973Z,14.83
2018-12-26T16:25:43.922Z,15.33
2018-12-26T16:28:12.929Z,15.83
2018-12-26T16:30:46.155Z,15.57
2018-12-26T16:33:12.457Z,12.00
2018-12-26T16:35:41.367Z,16.20
2018-12-26T16:38:12.445Z,16.03
2018-12-26T16:40:41.363Z,14.17
2018-12-26T16:43:10.191Z,17.60
2018-12-26T16:45:39.871Z,17.32
2018-12-26T16:48:09.875Z,17.85
2018-12-26T16:50:39.813Z,18.16
2018-12-26T16:53:08.789Z,15.28
2018-12-26T16:55:37.607Z,16.50
2018-12-26T16:58:07.207Z,16.50
2018-12-26T17:00:36.179Z,15.40
2018-12-26T17:03:05.088Z,14.50
2018-12-26T17:05:34.009Z,14.05
2018-12-26T17:08:02.937Z,15.17
2018-12-26T17:10:31.952Z,14.60
2018-12-26T17:13:00.781Z,16.03
2018-12-26T17:15:29.624Z,16.70
2018-12-26T17:17:58.534Z,13.47
2018-12-26T17:20:27.415Z,14.20
2018-12-26T17:22:56.256Z,16.43
2018-12-26T17:25:25.245Z,17.67
2018-12-26T17:27:54.183Z,18.07
2018-12-26T17:30:23.128Z,19.53
2018-12-26T17:33:00.373Z,18.20
2018-12-26T17:35:22.614Z,17.70
2018-12-26T17:37:51.646Z,18.13
2018-12-26T17:40:20.658Z,17.07
2018-12-26T17:42:49.493Z,15.33
2018-12-26T17:45:24.015Z,19.10
2018-12-26T17:47:52.884Z,17.17
2018-12-26T17:50:47.020Z,18.47
2018-12-26T17:53:32.845Z,15.80
2018-12-26T17:56:18.865Z,16.00
2018-12-26T17:59:00.271Z,18.67
2018-12-26T18:01:41.938Z,16.90
2018-12-26T18:04:11.704Z,20.70
2018-12-26T18:06:41.635Z,20.97
2018-12-26T18:09:10.540Z,18.32
2018-12-26T18:11:39.442Z,18.55
2018-12-26T18:14:08.308Z,19.83
2018-12-26T18:16:37.278Z,19.90
2018-12-26T18:19:06.219Z,19.53
2018-12-26T18:21:35.142Z,21.67
2018-12-26T18:24:04.273Z,21.47
2018-12-26T18:26:33.231Z,22.20
2018-12-26T18:29:02.079Z,20.00
2018-12-26T18:31:31.241Z,23.62
2018-12-26T18:34:00.154Z,23.87
2018-12-26T18:36:29.264Z,24.57
2018-12-26T18:38:58.116Z,23.97
2018-12-26T18:41:26.993Z,25.23
2018-12-26T18:43:55.897Z,25.77
2018-12-26T18:46:24.789Z,24.30
2018-12-26T18:48:54.199Z,20.87
2018-12-26T18:51:23.193Z,21.13
2018-12-26T18:53:52.128Z,20.70
2018-12-26T18:56:20.959Z,20.80
2018-12-26T18:58:49.791Z,18.35
2018-12-26T19:01:18.709Z,18.40
2018-12-26T19:03:47.688Z,17.35
2018-12-26T19:06:17.034Z,18.53
2018-12-26T19:08:46.174Z,20.90
2018-12-26T19:11:15.093Z,18.00
2018-12-26T19:13:43.935Z,20.07
2018-12-26T19:16:13.481Z,15.18
2018-12-26T19:18:42.345Z,16.97
2018-12-26T19:21:11.171Z,20.47
2018-12-26T19:23:40.172Z,19.83
2018-12-26T19:26:09.061Z,19.67
2018-12-26T19:28:37.922Z,20.23
2018-12-26T19:31:06.814Z,19.50
2018-12-26T19:33:35.624Z,17.37
2018-12-26T19:36:04.590Z,20.37
2018-12-26T19:38:33.395Z,22.37
2018-12-26T19:41:02.256Z,23.10
2018-12-26T19:43:31.209Z,30.23
2018-12-26T19:46:00.096Z,28.40
2018-12-26T19:48:29.123Z,29.70
2018-12-26T19:50:58.047Z,29.77
2018-12-26T19:53:27.262Z,33.67
2018-12-26T19:55:56.187Z,31.90
2018-12-26T19:58:25.027Z,26.87
2018-12-26T20:00:53.870Z,34.87
2018-12-26T20:03:22.745Z,32.07
2018-12-26T20:05:51.622Z,32.78
2018-12-26T20:08:20.532Z,34.57
2018-12-26T20:10:49.915Z,30.00
2018-12-26T20:13:18.815Z,25.70
2018-12-26T20:15:47.802Z,32.27
2018-12-26T20:18:16.638Z,33.87
2018-12-26T20:20:45.480Z,28.57
2018-12-26T20:23:15.197Z,29.45
2018-12-26T20:25:44.196Z,32.87
2018-12-26T20:28:13.009Z,28.57
2018-12-26T20:30:41.847Z,23.77
2018-12-26T20:33:10.653Z,22.73
2018-12-26T20:35:39.492Z,25.27
2018-12-26T20:38:08.487Z,25.57
2018-12-26T20:40:37.425Z,25.47
2018-12-26T20:43:06.256Z,23.90
2018-12-26T20:45:35.163Z,22.50
2018-12-26T20:48:04.061Z,22.50
2018-12-26T20:50:32.957Z,24.67
2018-12-26T20:53:01.784Z,26.50
2018-12-26T20:55:30.773Z,24.93
2018-12-26T20:57:59.577Z,25.87
2018-12-26T21:00:28.594Z,19.33
2018-12-26T21:02:57.462Z,20.90
2018-12-26T21:05:26.290Z,21.82
2018-12-26T21:07:55.121Z,18.27
2018-12-26T21:10:23.946Z,20.00
2018-12-26T21:12:52.760Z,17.30
2018-12-26T21:15:22.848Z,17.98
2018-12-26T21:17:51.945Z,18.33
2018-12-26T21:20:20.770Z,17.25
2018-12-26T21:22:49.656Z,18.77
2018-12-26T21:25:18.480Z,18.50
2018-12-26T21:27:47.381Z,19.80
2018-12-26T21:30:16.497Z,19.87
2018-12-26T21:32:45.515Z,19.27
2018-12-26T21:35:14.483Z,18.67
2018-12-26T21:37:43.393Z,23.87
2018-12-26T21:40:12.276Z,20.30
2018-12-26T21:42:41.103Z,17.67
2018-12-26T21:45:11.567Z,19.07
2018-12-26T21:47:40.480Z,19.40
2018-12-26T21:50:11.212Z,17.50
2018-12-26T21:52:40.194Z,18.43
2018-12-26T21:55:09.183Z,19.60
2018-12-26T21:57:38.158Z,16.52
2018-12-26T22:02:39.502Z,15.18
2018-12-26T22:05:08.397Z,16.35
2018-12-26T22:07:37.230Z,16.97
2018-12-26T22:10:06.310Z,16.13
2018-12-26T22:12:35.140Z,16.33
2018-12-26T22:15:04.239Z,20.43
2018-12-26T22:17:33.133Z,18.97
2018-12-26T22:20:01.946Z,24.10
2018-12-26T22:22:31.010Z,20.52
2018-12-26T22:24:59.886Z,19.23
2018-12-26T22:27:28.712Z,23.20
2018-12-26T22:29:57.540Z,22.60
2018-12-26T22:32:30.645Z,21.47
2018-12-26T22:34:57.019Z,22.13
2018-12-26T22:37:25.860Z,21.83
2018-12-26T22:39:54.684Z,18.80
2018-12-26T22:42:23.578Z,19.50
2018-12-26T22:44:52.417Z,22.43
2018-12-26T22:47:21.238Z,19.17
2018-12-26T22:49:50.057Z,20.10
2018-12-26T22:52:18.960Z,22.65
2018-12-26T22:54:47.852Z,23.47
2018-12-26T22:57:16.697Z,24.83
2018-12-26T22:59:45.586Z,23.80
2018-12-26T23:02:14.588Z,21.33
2018-12-26T23:04:43.405Z,20.53
2018-12-26T23:07:12.219Z,22.23
2018-12-26T23:09:41.133Z,20.97
2018-12-26T23:12:10.243Z,16.27
2018-12-26T23:14:39.066Z,19.30
2018-12-26T23:17:07.877Z,17.27
2018-12-26T23:19:36.778Z,19.57
2018-12-26T23:22:05.600Z,20.90
2018-12-26T23:24:34.434Z,19.30
2018-12-26T23:27:03.396Z,17.77
2018-12-26T23:29:32.307Z,21.43
2018-12-26T23:32:01.272Z,22.40
2018-12-26T23:34:30.274Z,18.00
2018-12-26T23:36:59.084Z,16.90
2018-12-26T23:39:27.908Z,20.10
2018-12-26T23:41:56.849Z,17.70
2018-12-26T23:44:25.692Z,15.85
2018-12-26T23:46:54.503Z,16.17
2018-12-26T23:49:23.411Z,15.27
2018-12-26T23:51:52.321Z,17.47
2018-12-26T23:54:21.151Z,16.27
2018-12-26T23:56:49.968Z,15.77
2018-12-26T23:59:18.789Z,19.70
